createdAt,value
2018-06-22T00:00:46.316Z,101044.97
2018-06-22T00:03:15.718Z,101049.05
2018-06-22T00:05:45.060Z,101047.78
2018-06-22T00:08:13.456Z,101046.71
2018-06-22T00:10:41.836Z,101046.91
2018-06-22T00:13:10.247Z,101049.63
2018-06-22T00:15:39.650Z,101048.52
2018-06-22T00:18:08.932Z,101051.09
2018-06-22T00:20:38.284Z,101051.72
2018-06-22T00:23:06.683Z,101050.59
2018-06-22T00:25:35.049Z,101052.09
2018-06-22T00:28:04.450Z,101056.59
2018-06-22T00:30:33.730Z,101060.25
2018-06-22T00:33:02.163Z,101060.52
2018-06-22T00:35:31.395Z,101056.06
2018-06-22T00:37:59.798Z,101059.61
2018-06-22T00:40:28.163Z,101052.52
2018-06-22T00:42:56.885Z,101050.05
2018-06-22T00:45:25.238Z,101048.80
2018-06-22T00:47:54.615Z,101044.19
2018-06-22T00:50:22.986Z,101057.16
2018-06-22T00:52:52.359Z,101047.58
2018-06-22T00:55:20.727Z,101049.61
2018-06-22T00:57:49.187Z,101050.98
2018-06-22T01:00:17.590Z,101051.30
2018-06-22T01:02:46.852Z,101045.69
2018-06-22T01:05:15.259Z,101044.03
2018-06-22T01:07:43.626Z,101037.07
2018-06-22T01:10:12.029Z,101042.16
2018-06-22T01:12:40.399Z,101034.08
2018-06-22T01:15:08.796Z,101036.42
2018-06-22T01:17:37.182Z,101040.84
2018-06-22T01:20:05.587Z,101035.95
2018-06-22T01:22:34.019Z,101029.47
2018-06-22T01:25:02.488Z,101029.00
2018-06-22T01:27:30.902Z,101028.54
2018-06-22T01:29:59.271Z,101027.55
2018-06-22T01:32:27.688Z,101029.59
2018-06-22T01:34:56.061Z,101036.17
2018-06-22T01:37:24.467Z,101018.92
2018-06-22T01:39:52.835Z,101032.73
2018-06-22T01:42:21.290Z,101028.16
2018-06-22T01:44:49.674Z,101019.84
2018-06-22T01:47:18.104Z,101030.20
2018-06-22T01:49:46.475Z,101023.61
2018-06-22T01:52:14.883Z,101027.63
2018-06-22T01:54:43.262Z,101026.47
2018-06-22T01:57:11.641Z,101018.08
2018-06-22T01:59:40.130Z,101022.00
2018-06-22T02:02:08.505Z,101020.33
2018-06-22T02:04:36.894Z,101019.78
2018-06-22T02:07:05.456Z,101021.09
2018-06-22T02:09:33.843Z,101020.53
2018-06-22T02:12:02.255Z,101026.45
2018-06-22T02:14:30.658Z,101026.45
2018-06-22T02:16:59.059Z,101021.28
2018-06-22T02:19:27.448Z,101020.33
2018-06-22T02:21:55.846Z,101020.17
2018-06-22T02:24:24.250Z,101024.20
2018-06-22T02:26:52.838Z,101025.36
2018-06-22T02:29:21.214Z,101020.83
2018-06-22T02:31:49.577Z,101020.06
2018-06-22T02:34:17.955Z,101024.36
2018-06-22T02:36:46.314Z,101023.36
2018-06-22T02:39:14.692Z,101015.91
2018-06-22T02:41:43.060Z,101021.17
2018-06-22T02:44:11.434Z,101010.48
2018-06-22T02:46:39.803Z,101012.72
2018-06-22T02:49:08.171Z,101016.75
2018-06-22T02:51:36.754Z,101017.83
2018-06-22T02:54:05.149Z,101006.98
2018-06-22T02:56:33.570Z,101016.37
2018-06-22T02:59:01.942Z,101022.17
2018-06-22T03:01:30.315Z,101017.17
2018-06-22T03:03:58.684Z,101010.91
2018-06-22T03:06:27.065Z,101022.44
2018-06-22T03:08:55.454Z,101017.94
2018-06-22T03:11:23.818Z,101008.25
2018-06-22T03:13:52.186Z,101015.94
2018-06-22T03:16:20.559Z,101016.14
2018-06-22T03:18:48.992Z,101010.83
2018-06-22T03:21:17.358Z,101016.17
2018-06-22T03:23:45.766Z,101015.37
2018-06-22T03:26:14.125Z,101021.20
2018-06-22T03:28:42.485Z,101018.79
2018-06-22T03:31:10.971Z,101027.20
2018-06-22T03:33:39.354Z,101026.40
2018-06-22T03:36:07.714Z,101021.86
2018-06-22T03:38:36.101Z,101022.09
2018-06-22T03:41:04.619Z,101021.00
2018-06-22T03:43:32.988Z,101020.50
2018-06-22T03:46:01.362Z,101023.87
2018-06-22T03:48:29.742Z,101023.90
2018-06-22T03:50:58.106Z,101014.05
2018-06-22T03:53:26.480Z,101015.50
2018-06-22T03:55:54.895Z,101015.47
2018-06-22T03:58:23.268Z,101016.79
2018-06-22T04:00:52.680Z,101010.17
2018-06-22T04:03:21.062Z,101007.75
2018-06-22T04:05:49.430Z,101008.45
2018-06-22T04:08:17.944Z,101006.48
2018-06-22T04:10:46.245Z,101006.87
2018-06-22T04:13:14.626Z,101010.48
2018-06-22T04:15:43.074Z,101008.61
2018-06-22T04:18:11.472Z,101007.34
2018-06-22T04:20:39.851Z,101005.44
2018-06-22T04:23:08.257Z,100999.87
2018-06-22T04:25:36.631Z,101006.30
2018-06-22T04:28:05.006Z,101008.39
2018-06-22T04:30:33.378Z,101007.74
2018-06-22T04:33:01.751Z,100999.81
2018-06-22T04:35:30.124Z,101007.13
2018-06-22T04:37:58.482Z,101001.64
2018-06-22T04:40:26.854Z,101003.00
2018-06-22T04:42:55.238Z,101002.54
2018-06-22T04:45:23.618Z,101003.05
2018-06-22T04:47:51.983Z,101003.17
2018-06-22T04:50:20.354Z,101004.57
2018-06-22T04:52:48.765Z,101008.42
2018-06-22T04:55:17.146Z,101001.40
2018-06-22T04:57:45.607Z,101004.73
2018-06-22T05:00:14.004Z,101001.52
2018-06-22T05:02:42.391Z,101001.53
2018-06-22T05:05:10.803Z,101006.55
2018-06-22T05:07:39.182Z,101007.94
2018-06-22T05:10:07.582Z,100999.36
2018-06-22T05:12:35.962Z,101007.22
2018-06-22T05:15:04.337Z,100997.42
2018-06-22T05:17:32.955Z,100994.60
2018-06-22T05:20:01.337Z,100999.27
2018-06-22T05:22:29.715Z,100993.69
2018-06-22T05:24:58.079Z,100990.92
2018-06-22T05:27:26.463Z,100995.36
2018-06-22T05:29:54.828Z,100996.31
2018-06-22T05:32:23.259Z,100991.52
2018-06-22T05:34:51.626Z,101001.19
2018-06-22T05:37:20.025Z,100990.83
2018-06-22T05:39:48.458Z,100990.72
2018-06-22T05:42:16.838Z,100990.35
2018-06-22T05:44:45.201Z,100993.30
2018-06-22T05:47:13.603Z,100996.39
2018-06-22T05:49:41.995Z,100987.68
2018-06-22T05:52:10.366Z,100997.83
2018-06-22T05:54:38.787Z,100996.66
2018-06-22T05:57:07.194Z,101001.31
2018-06-22T05:59:35.598Z,100993.92
2018-06-22T06:02:04.899Z,100996.92
2018-06-22T06:04:34.194Z,101000.70
2018-06-22T06:07:02.576Z,101007.16
2018-06-22T06:09:30.980Z,100998.83
2018-06-22T06:11:59.499Z,100994.50
2018-06-22T06:14:27.997Z,100988.73
2018-06-22T06:16:56.391Z,101002.97
2018-06-22T06:19:24.966Z,100999.86
2018-06-22T06:21:53.394Z,100995.12
2018-06-22T06:24:21.772Z,100998.36
2018-06-22T06:26:50.167Z,100996.25
2018-06-22T06:29:18.573Z,100990.48
2018-06-22T06:31:47.020Z,100998.53
2018-06-22T06:34:15.453Z,101003.58
2018-06-22T06:36:43.800Z,100999.77
2018-06-22T06:39:12.279Z,101002.36
2018-06-22T06:41:40.741Z,101000.32
2018-06-22T06:44:09.135Z,101001.41
2018-06-22T06:46:37.550Z,100993.14
2018-06-22T06:49:05.924Z,101000.95
2018-06-22T06:51:34.325Z,100993.09
2018-06-22T06:54:02.772Z,100993.58
2018-06-22T06:56:31.191Z,100993.33
2018-06-22T06:58:59.568Z,100994.55
2018-06-22T07:01:27.955Z,100990.09
2018-06-22T07:03:56.418Z,100988.50
2018-06-22T07:06:24.832Z,100999.03
2018-06-22T07:08:53.238Z,101004.53
2018-06-22T07:11:21.624Z,101008.01
2018-06-22T07:13:50.015Z,101015.52
2018-06-22T07:16:18.401Z,101016.70
2018-06-22T07:18:46.895Z,101011.78
2018-06-22T07:21:15.379Z,101009.12
2018-06-22T07:23:43.755Z,101012.48
2018-06-22T07:26:12.135Z,101015.11
2018-06-22T07:28:40.526Z,101006.20
2018-06-22T07:31:09.092Z,101016.70
2018-06-22T07:33:37.464Z,101022.36
2018-06-22T07:36:05.866Z,101010.91
2018-06-22T07:38:34.267Z,101016.13
2018-06-22T07:41:02.744Z,101012.94
2018-06-22T07:43:31.162Z,101010.41
2018-06-22T07:45:59.529Z,101016.58
2018-06-22T07:48:27.907Z,101012.80
2018-06-22T07:50:56.279Z,101016.09
2018-06-22T07:53:25.680Z,101028.58
2018-06-22T07:55:54.046Z,101023.43
2018-06-22T07:58:22.511Z,101025.20
2018-06-22T08:00:50.914Z,101026.22
2018-06-22T08:03:19.347Z,101035.42
2018-06-22T08:05:47.768Z,101026.60
2018-06-22T08:08:16.137Z,101017.89
2018-06-22T08:10:44.674Z,101027.17
2018-06-22T08:13:13.051Z,101035.06
2018-06-22T08:15:41.443Z,101025.46
2018-06-22T08:18:09.821Z,101028.58
2018-06-22T08:20:38.347Z,101030.34
2018-06-22T08:23:06.758Z,101032.94
2018-06-22T08:25:35.166Z,101035.45
2018-06-22T08:28:03.588Z,101055.42
2018-06-22T08:30:32.085Z,101042.03
2018-06-22T08:33:00.490Z,101045.52
2018-06-22T08:35:29.071Z,101046.70
2018-06-22T08:37:57.496Z,101049.67
2018-06-22T08:40:26.415Z,101055.90
2018-06-22T08:42:54.834Z,101055.28
2018-06-22T08:45:23.261Z,101051.11
2018-06-22T08:47:51.635Z,101046.45
2018-06-22T08:50:20.023Z,101053.25
2018-06-22T08:52:48.430Z,101053.22
2018-06-22T08:55:17.103Z,101059.53
2018-06-22T08:57:45.520Z,101052.25
2018-06-22T09:00:13.943Z,101064.63
2018-06-22T09:02:42.315Z,101064.22
2018-06-22T09:05:10.690Z,101062.58
2018-06-22T09:07:39.129Z,101059.39
2018-06-22T09:10:07.787Z,101064.34
2018-06-22T09:12:36.359Z,101062.55
2018-06-22T09:15:04.759Z,101063.03
2018-06-22T09:17:33.155Z,101060.11
2018-06-22T09:20:02.530Z,101060.11
2018-06-22T09:22:30.957Z,101060.78
2018-06-22T09:24:59.328Z,101055.18
2018-06-22T09:27:27.695Z,101063.16
2018-06-22T09:29:56.076Z,101053.38
2018-06-22T09:32:24.479Z,101050.67
2018-06-22T09:34:52.848Z,101056.49
2018-06-22T09:37:21.368Z,101061.13
2018-06-22T09:39:49.765Z,101054.10
2018-06-22T09:42:18.323Z,101065.86
2018-06-22T09:44:46.747Z,101059.67
2018-06-22T09:47:15.130Z,101075.98
2018-06-22T09:49:43.539Z,101083.64
2018-06-22T09:52:11.918Z,101087.41
2018-06-22T09:54:40.388Z,101087.94
2018-06-22T09:57:08.767Z,101087.42
2018-06-22T09:59:37.140Z,101094.19
2018-06-22T10:02:05.567Z,101086.45
2018-06-22T10:04:33.983Z,101090.09
2018-06-22T10:07:02.370Z,101095.80
2018-06-22T10:09:30.800Z,101085.33
2018-06-22T10:11:59.207Z,101086.70
2018-06-22T10:14:27.580Z,101094.52
2018-06-22T10:16:55.955Z,101096.28
2018-06-22T10:19:24.371Z,101098.36
2018-06-22T10:21:52.796Z,101104.13
2018-06-22T10:24:21.183Z,101108.77
2018-06-22T10:26:49.612Z,101108.26
2018-06-22T10:29:18.058Z,101113.08
2018-06-22T10:31:46.426Z,101109.84
2018-06-22T10:34:14.862Z,101115.23
2018-06-22T10:36:43.222Z,101110.55
2018-06-22T10:39:13.016Z,101114.22
2018-06-22T10:41:41.497Z,101105.72
2018-06-22T10:44:10.467Z,101115.70
2018-06-22T10:46:39.061Z,101099.98
2018-06-22T10:49:07.426Z,101103.23
2018-06-22T10:51:35.847Z,101095.77
2018-06-22T10:54:04.264Z,101096.78
2018-06-22T10:56:32.704Z,101098.17
2018-06-22T10:59:01.090Z,101100.62
2018-06-22T11:01:30.420Z,101100.02
2018-06-22T11:03:58.797Z,101099.79
2018-06-22T11:06:27.179Z,101095.95
2018-06-22T11:08:55.622Z,101090.48
2018-06-22T11:11:24.022Z,101086.31
2018-06-22T11:13:52.518Z,101095.68
2018-06-22T11:16:20.864Z,101089.07
2018-06-22T11:18:49.313Z,101089.28
2018-06-22T11:21:17.735Z,101078.63
2018-06-22T11:23:46.139Z,101079.14
2018-06-22T11:26:14.562Z,101071.10
2018-06-22T11:28:42.996Z,101076.55
2018-06-22T11:31:11.406Z,101080.52
2018-06-22T11:33:39.791Z,101081.05
2018-06-22T11:36:08.260Z,101080.65
2018-06-22T11:38:36.654Z,101082.66
2018-06-22T11:41:05.016Z,101092.16
2018-06-22T11:43:33.508Z,101085.00
2018-06-22T11:46:01.927Z,101094.87
2018-06-22T11:48:30.321Z,101094.73
2018-06-22T11:50:58.758Z,101102.97
2018-06-22T11:53:27.138Z,101103.95
2018-06-22T11:55:55.561Z,101098.42
2018-06-22T11:58:23.960Z,101100.33
2018-06-22T12:00:52.381Z,101091.87
2018-06-22T12:03:20.777Z,101103.17
2018-06-22T12:05:49.217Z,101117.22
2018-06-22T12:08:17.602Z,101137.11
2018-06-22T12:10:46.088Z,101155.58
2018-06-22T12:13:14.472Z,101167.84
2018-06-22T12:15:42.922Z,101167.53
2018-06-22T12:18:11.330Z,101165.37
2018-06-22T12:20:39.755Z,101168.73
2018-06-22T12:23:08.132Z,101154.12
2018-06-22T12:25:36.547Z,101156.06
2018-06-22T12:28:04.995Z,101154.69
2018-06-22T12:30:33.414Z,101148.38
2018-06-22T12:33:01.816Z,101146.23
2018-06-22T12:35:30.179Z,101142.37
2018-06-22T12:37:58.573Z,101136.35
2018-06-22T12:40:27.017Z,101145.72
2018-06-22T12:42:55.467Z,101148.79
2018-06-22T12:45:23.847Z,101142.52
2018-06-22T12:47:52.230Z,101147.19
2018-06-22T12:50:20.593Z,101149.73
2018-06-22T12:52:48.967Z,101151.59
2018-06-22T12:55:17.347Z,101149.58
2018-06-22T12:57:45.747Z,101152.03
2018-06-22T13:00:14.159Z,101148.33
2018-06-22T13:02:42.547Z,101149.84
2018-06-22T13:05:11.199Z,101146.72
2018-06-22T13:07:39.654Z,101145.27
2018-06-22T13:10:08.026Z,101149.73
2018-06-22T13:12:36.436Z,101147.75
2018-06-22T13:15:05.277Z,101144.66
2018-06-22T13:17:33.693Z,101141.72
2018-06-22T13:20:02.151Z,101139.00
2018-06-22T13:22:30.599Z,101138.75
2018-06-22T13:24:59.002Z,101131.40
2018-06-22T13:27:27.416Z,101139.62
2018-06-22T13:29:55.866Z,101140.30
2018-06-22T13:32:24.247Z,101130.77
2018-06-22T13:34:52.610Z,101134.51
2018-06-22T13:37:21.044Z,101126.47
2018-06-22T13:39:49.472Z,101132.89
2018-06-22T13:42:17.839Z,101133.60
2018-06-22T13:44:46.211Z,101127.82
2018-06-22T13:47:14.586Z,101128.24
2018-06-22T13:49:42.963Z,101127.30
2018-06-22T13:52:11.386Z,101128.05
2018-06-22T13:54:39.783Z,101128.05
2018-06-22T13:57:08.352Z,101131.86
2018-06-22T13:59:36.581Z,101128.77
2018-06-22T14:02:05.030Z,101121.81
2018-06-22T14:04:38.843Z,101119.88
2018-06-22T14:07:08.120Z,101115.44
2018-06-22T14:09:36.547Z,101128.05
2018-06-22T14:12:04.906Z,101122.45
2018-06-22T14:14:33.295Z,101129.38
2018-06-22T14:17:01.692Z,101128.72
2018-06-22T14:19:30.074Z,101128.88
2018-06-22T14:21:58.436Z,101126.97
2018-06-22T14:24:26.815Z,101131.29
2018-06-22T14:26:55.207Z,101126.89
2018-06-22T14:29:23.594Z,101128.54
2018-06-22T14:31:51.974Z,101138.20
2018-06-22T14:34:20.347Z,101137.95
2018-06-22T14:36:48.722Z,101135.53
2018-06-22T14:39:17.142Z,101136.87
2018-06-22T14:41:45.563Z,101140.78
2018-06-22T14:44:13.942Z,101141.99
2018-06-22T14:46:42.356Z,101132.83
2018-06-22T14:49:10.782Z,101127.83
2018-06-22T14:51:39.203Z,101137.31
2018-06-22T14:54:12.827Z,101126.78
2018-06-22T14:56:46.527Z,101135.16
2018-06-22T14:59:20.248Z,101130.31
2018-06-22T15:01:53.958Z,101128.94
2018-06-22T15:04:27.622Z,101134.67
2018-06-22T15:07:01.260Z,101139.19
2018-06-22T15:09:29.686Z,101133.59
2018-06-22T15:11:58.066Z,101135.84
2018-06-22T15:14:26.435Z,101143.14
2018-06-22T15:16:55.284Z,101150.38
2018-06-22T15:19:23.692Z,101150.05
2018-06-22T15:21:52.122Z,101148.35
2018-06-22T15:24:20.505Z,101146.29
2018-06-22T15:26:48.875Z,101151.33
2018-06-22T15:29:17.250Z,101142.56
2018-06-22T15:31:45.644Z,101143.06
2018-06-22T15:34:19.512Z,101144.07
2018-06-22T15:36:53.384Z,101148.63
2018-06-22T15:39:27.076Z,101148.55
2018-06-22T15:42:01.787Z,101143.29
2018-06-22T15:44:35.851Z,101143.36
2018-06-22T15:47:09.758Z,101149.16
2018-06-22T15:49:43.594Z,101147.27
2018-06-22T15:52:17.415Z,101150.75
2018-06-22T15:54:51.174Z,101149.23
2018-06-22T15:57:20.620Z,101155.44
2018-06-22T15:59:49.095Z,101155.79
2018-06-22T16:02:22.884Z,101157.92
2018-06-22T16:04:51.483Z,101151.04
2018-06-22T16:07:19.889Z,101155.53
2018-06-22T16:09:53.647Z,101155.37
2018-06-22T16:12:27.434Z,101147.45
2018-06-22T16:15:01.291Z,101148.33
2018-06-22T16:17:35.083Z,101153.78
2018-06-22T16:20:08.868Z,101145.71
2018-06-22T16:22:42.524Z,101143.00
2018-06-22T16:25:16.216Z,101150.41
